sensor_id;sensor_type;location;lat;lon;timestamp;temperature;humidity
25918;DHT22;13899;51.174;4.456;2023-12-20T00:00:58;7.30;99.90
25918;DHT22;13899;51.174;4.456;2023-12-20T00:03:24;7.50;99.90
25918;DHT22;13899;51.174;4.456;2023-12-20T00:05:50;7.40;99.90
25918;DHT22;13899;51.174;4.456;2023-12-20T00:08:16;7.20;99.90
25918;DHT22;13899;51.174;4.456;2023-12-20T00:10:43;7.10;99.90
25918;DHT22;13899;51.174;4.456;2023-12-20T00:13:08;6.90;99.90
25918;DHT22;13899;51.174;4.456;2023-12-20T00:15:34;7.20;99.90
25918;DHT22;13899;51.174;4.456;2023-12-20T00:18:00;7.00;99.90
25918;DHT22;13899;51.174;4.456;2023-12-20T00:20:26;7.10;99.90
25918;DHT22;13899;51.174;4.456;2023-12-20T00:22:54;7.50;99.90
25918;DHT22;13899;51.174;4.456;2023-12-20T00:25:20;7.40;99.90
25918;DHT22;13899;51.174;4.456;2023-12-20T00:27:45;7.20;99.90
25918;DHT22;13899;51.174;4.456;2023-12-20T00:30:11;7.20;99.90
25918;DHT22;13899;51.174;4.456;2023-12-20T00:32:37;7.10;99.90
25918;DHT22;13899;51.174;4.456;2023-12-20T00:35:02;7.00;99.90
25918;DHT22;13899;51.174;4.456;2023-12-20T00:37:28;7.00;99.90
25918;DHT22;13899;51.174;4.456;2023-12-20T00:39:54;7.10;99.90
25918;DHT22;13899;51.174;4.456;2023-12-20T00:42:19;6.90;99.90
25918;DHT22;13899;51.174;4.456;2023-12-20T00:44:45;7.00;99.90
25918;DHT22;13899;51.174;4.456;2023-12-20T00:47:11;7.00;99.90
25918;DHT22;13899;51.174;4.456;2023-12-20T00:49:36;7.00;99.90
25918;DHT22;13899;51.174;4.456;2023-12-20T00:52:02;6.90;99.90
25918;DHT22;13899;51.174;4.456;2023-12-20T00:54:28;6.90;99.90
25918;DHT22;13899;51.174;4.456;2023-12-20T00:56:54;6.90;99.90
25918;DHT22;13899;51.174;4.456;2023-12-20T00:59:19;6.80;99.90
25918;DHT22;13899;51.174;4.456;2023-12-20T01:01:45;6.80;99.90
25918;DHT22;13899;51.174;4.456;2023-12-20T01:04:11;6.60;99.90
25918;DHT22;13899;51.174;4.456;2023-12-20T01:06:36;6.70;99.90
25918;DHT22;13899;51.174;4.456;2023-12-20T01:09:02;6.80;99.90
25918;DHT22;13899;51.174;4.456;2023-12-20T01:11:28;6.70;99.90
25918;DHT22;13899;51.174;4.456;2023-12-20T01:13:54;6.80;99.90
25918;DHT22;13899;51.174;4.456;2023-12-20T01:16:19;6.80;99.90
25918;DHT22;13899;51.174;4.456;2023-12-20T01:18:45;6.80;99.90
25918;DHT22;13899;51.174;4.456;2023-12-20T01:21:10;6.70;99.90
25918;DHT22;13899;51.174;4.456;2023-12-20T01:23:36;6.70;99.90
25918;DHT22;13899;51.174;4.456;2023-12-20T01:26:02;6.80;99.90
25918;DHT22;13899;51.174;4.456;2023-12-20T01:28:31;6.70;99.90
25918;DHT22;13899;51.174;4.456;2023-12-20T01:30:57;6.70;99.90
25918;DHT22;13899;51.174;4.456;2023-12-20T01:33:23;6.80;99.90
25918;DHT22;13899;51.174;4.456;2023-12-20T01:35:48;6.80;99.90
25918;DHT22;13899;51.174;4.456;2023-12-20T01:38:14;6.70;99.90
25918;DHT22;13899;51.174;4.456;2023-12-20T01:40:40;6.70;99.90
25918;DHT22;13899;51.174;4.456;2023-12-20T01:43:08;6.70;99.90
25918;DHT22;13899;51.174;4.456;2023-12-20T01:45:34;6.70;99.90
25918;DHT22;13899;51.174;4.456;2023-12-20T01:48:01;6.80;99.90
25918;DHT22;13899;51.174;4.456;2023-12-20T01:50:28;6.60;99.90
25918;DHT22;13899;51.174;4.456;2023-12-20T01:52:56;6.60;99.90
25918;DHT22;13899;51.174;4.456;2023-12-20T01:55:24;6.50;99.90
25918;DHT22;13899;51.174;4.456;2023-12-20T01:57:50;6.30;99.90
25918;DHT22;13899;51.174;4.456;2023-12-20T02:00:16;6.20;99.90
25918;DHT22;13899;51.174;4.456;2023-12-20T02:02:44;6.40;99.90
25918;DHT22;13899;51.174;4.456;2023-12-20T02:05:11;6.40;99.90
25918;DHT22;13899;51.174;4.456;2023-12-20T02:07:36;6.50;99.90
25918;DHT22;13899;51.174;4.456;2023-12-20T02:10:02;6.60;99.90
25918;DHT22;13899;51.174;4.456;2023-12-20T02:12:30;6.50;99.90
25918;DHT22;13899;51.174;4.456;2023-12-20T02:14:55;6.60;99.90
25918;DHT22;13899;51.174;4.456;2023-12-20T02:17:22;6.50;99.90
25918;DHT22;13899;51.174;4.456;2023-12-20T02:19:49;6.80;99.90
25918;DHT22;13899;51.174;4.456;2023-12-20T02:22:14;6.80;99.90
25918;DHT22;13899;51.174;4.456;2023-12-20T02:24:40;6.80;99.90
25918;DHT22;13899;51.174;4.456;2023-12-20T02:27:07;6.70;99.90
25918;DHT22;13899;51.174;4.456;2023-12-20T02:29:33;6.60;99.90
25918;DHT22;13899;51.174;4.456;2023-12-20T02:31:59;6.50;99.90
25918;DHT22;13899;51.174;4.456;2023-12-20T02:34:25;6.60;99.90
25918;DHT22;13899;51.174;4.456;2023-12-20T02:36:50;6.60;99.90
25918;DHT22;13899;51.174;4.456;2023-12-20T02:39:16;6.60;99.90
25918;DHT22;13899;51.174;4.456;2023-12-20T02:41:42;6.50;99.90
25918;DHT22;13899;51.174;4.456;2023-12-20T02:44:08;6.50;99.90
25918;DHT22;13899;51.174;4.456;2023-12-20T02:46:33;6.60;99.90
25918;DHT22;13899;51.174;4.456;2023-12-20T02:48:59;6.70;99.90
25918;DHT22;13899;51.174;4.456;2023-12-20T02:51:24;6.50;99.90
25918;DHT22;13899;51.174;4.456;2023-12-20T02:53:50;6.50;99.90
25918;DHT22;13899;51.174;4.456;2023-12-20T02:56:16;6.60;99.90
25918;DHT22;13899;51.174;4.456;2023-12-20T02:58:41;6.70;99.90
25918;DHT22;13899;51.174;4.456;2023-12-20T03:01:07;6.80;99.90
25918;DHT22;13899;51.174;4.456;2023-12-20T03:03:32;6.70;99.90
25918;DHT22;13899;51.174;4.456;2023-12-20T03:05:59;6.60;99.90
25918;DHT22;13899;51.174;4.456;2023-12-20T03:08:25;6.60;99.90
25918;DHT22;13899;51.174;4.456;2023-12-20T03:10:51;6.70;99.90
25918;DHT22;13899;51.174;4.456;2023-12-20T03:13:16;6.60;99.90
25918;DHT22;13899;51.174;4.456;2023-12-20T03:15:42;6.80;99.90
25918;DHT22;13899;51.174;4.456;2023-12-20T03:18:08;6.80;99.90
25918;DHT22;13899;51.174;4.456;2023-12-20T03:20:33;6.70;99.90
25918;DHT22;13899;51.174;4.456;2023-12-20T03:23:03;6.60;99.90
25918;DHT22;13899;51.174;4.456;2023-12-20T03:25:29;6.60;99.90
25918;DHT22;13899;51.174;4.456;2023-12-20T03:27:54;6.80;99.90
25918;DHT22;13899;51.174;4.456;2023-12-20T03:30:20;6.80;99.90
25918;DHT22;13899;51.174;4.456;2023-12-20T03:32:46;6.90;99.90
25918;DHT22;13899;51.174;4.456;2023-12-20T03:35:12;6.90;99.90
25918;DHT22;13899;51.174;4.456;2023-12-20T03:37:37;6.80;99.90
25918;DHT22;13899;51.174;4.456;2023-12-20T03:40:03;6.90;99.90
25918;DHT22;13899;51.174;4.456;2023-12-20T03:42:29;6.80;99.90
25918;DHT22;13899;51.174;4.456;2023-12-20T03:44:55;6.70;99.90
25918;DHT22;13899;51.174;4.456;2023-12-20T03:47:20;6.70;99.90
25918;DHT22;13899;51.174;4.456;2023-12-20T03:49:46;6.60;99.90
25918;DHT22;13899;51.174;4.456;2023-12-20T03:52:12;6.60;99.90
25918;DHT22;13899;51.174;4.456;2023-12-20T03:54:37;6.60;99.90
25918;DHT22;13899;51.174;4.456;2023-12-20T03:57:03;6.60;99.90
25918;DHT22;13899;51.174;4.456;2023-12-20T03:59:30;6.60;99.90
25918;DHT22;13899;51.174;4.456;2023-12-20T04:01:55;6.60;99.90
25918;DHT22;13899;51.174;4.456;2023-12-20T04:04:21;6.60;99.90
25918;DHT22;13899;51.174;4.456;2023-12-20T04:06:46;6.50;99.90
25918;DHT22;13899;51.174;4.456;2023-12-20T04:09:12;6.40;99.90
25918;DHT22;13899;51.174;4.456;2023-12-20T04:11:38;6.40;99.90
25918;DHT22;13899;51.174;4.456;2023-12-20T04:14:04;6.40;99.90
25918;DHT22;13899;51.174;4.456;2023-12-20T04:16:32;6.50;99.90
25918;DHT22;13899;51.174;4.456;2023-12-20T04:18:58;6.40;99.90
25918;DHT22;13899;51.174;4.456;2023-12-20T04:21:24;6.40;99.90
25918;DHT22;13899;51.174;4.456;2023-12-20T04:23:49;6.40;99.90
25918;DHT22;13899;51.174;4.456;2023-12-20T04:26:15;6.30;99.90
25918;DHT22;13899;51.174;4.456;2023-12-20T04:28:40;6.40;99.90
25918;DHT22;13899;51.174;4.456;2023-12-20T04:31:06;6.40;99.90
25918;DHT22;13899;51.174;4.456;2023-12-20T04:33:32;6.60;99.90
25918;DHT22;13899;51.174;4.456;2023-12-20T04:35:58;6.50;99.90
25918;DHT22;13899;51.174;4.456;2023-12-20T04:38:23;6.50;99.90
25918;DHT22;13899;51.174;4.456;2023-12-20T04:40:49;6.50;99.90
25918;DHT22;13899;51.174;4.456;2023-12-20T04:43:15;6.70;99.90
25918;DHT22;13899;51.174;4.456;2023-12-20T04:45:40;6.70;99.90
25918;DHT22;13899;51.174;4.456;2023-12-20T04:48:06;6.80;99.90
25918;DHT22;13899;51.174;4.456;2023-12-20T04:50:32;6.80;99.90
25918;DHT22;13899;51.174;4.456;2023-12-20T04:52:58;6.70;99.90
25918;DHT22;13899;51.174;4.456;2023-12-20T04:55:24;6.60;99.90
25918;DHT22;13899;51.174;4.456;2023-12-20T04:57:49;6.70;99.90
25918;DHT22;13899;51.174;4.456;2023-12-20T05:00:15;6.70;99.90
25918;DHT22;13899;51.174;4.456;2023-12-20T05:02:41;6.60;99.90
25918;DHT22;13899;51.174;4.456;2023-12-20T05:05:07;6.60;99.90
25918;DHT22;13899;51.174;4.456;2023-12-20T05:07:33;6.50;99.90
25918;DHT22;13899;51.174;4.456;2023-12-20T05:09:59;6.50;99.90
25918;DHT22;13899;51.174;4.456;2023-12-20T05:12:25;6.40;99.90
25918;DHT22;13899;51.174;4.456;2023-12-20T05:14:52;6.50;99.90
25918;DHT22;13899;51.174;4.456;2023-12-20T05:17:17;6.50;99.90
25918;DHT22;13899;51.174;4.456;2023-12-20T05:19:43;6.50;99.90
25918;DHT22;13899;51.174;4.456;2023-12-20T05:22:09;6.60;99.90
25918;DHT22;13899;51.174;4.456;2023-12-20T05:24:35;6.60;99.90
25918;DHT22;13899;51.174;4.456;2023-12-20T05:27:01;6.50;99.90
25918;DHT22;13899;51.174;4.456;2023-12-20T05:29:26;6.50;99.90
25918;DHT22;13899;51.174;4.456;2023-12-20T05:31:52;6.50;99.90
25918;DHT22;13899;51.174;4.456;2023-12-20T05:34:17;6.50;99.90
25918;DHT22;13899;51.174;4.456;2023-12-20T05:36:43;6.50;99.90
25918;DHT22;13899;51.174;4.456;2023-12-20T05:39:09;6.50;99.90
25918;DHT22;13899;51.174;4.456;2023-12-20T05:41:34;6.60;99.90
25918;DHT22;13899;51.174;4.456;2023-12-20T05:44:00;6.60;99.90
25918;DHT22;13899;51.174;4.456;2023-12-20T05:46:26;6.60;99.90
25918;DHT22;13899;51.174;4.456;2023-12-20T05:48:51;6.50;99.90
25918;DHT22;13899;51.174;4.456;2023-12-20T05:51:18;6.60;99.90
25918;DHT22;13899;51.174;4.456;2023-12-20T05:53:44;6.60;99.90
25918;DHT22;13899;51.174;4.456;2023-12-20T05:56:10;6.70;99.90
25918;DHT22;13899;51.174;4.456;2023-12-20T05:58:36;6.70;99.90
25918;DHT22;13899;51.174;4.456;2023-12-20T06:01:04;6.70;99.90
25918;DHT22;13899;51.174;4.456;2023-12-20T06:03:30;6.70;99.90
25918;DHT22;13899;51.174;4.456;2023-12-20T06:05:55;6.70;99.90
25918;DHT22;13899;51.174;4.456;2023-12-20T06:08:21;6.70;99.90
25918;DHT22;13899;51.174;4.456;2023-12-20T06:10:47;6.70;99.90
25918;DHT22;13899;51.174;4.456;2023-12-20T06:13:12;6.70;99.90
25918;DHT22;13899;51.174;4.456;2023-12-20T06:15:39;6.70;99.90
25918;DHT22;13899;51.174;4.456;2023-12-20T06:18:06;6.70;99.90
25918;DHT22;13899;51.174;4.456;2023-12-20T06:20:32;6.60;99.90
25918;DHT22;13899;51.174;4.456;2023-12-20T06:22:57;6.60;99.90
25918;DHT22;13899;51.174;4.456;2023-12-20T06:25:23;6.50;99.90
25918;DHT22;13899;51.174;4.456;2023-12-20T06:27:49;6.50;99.90
25918;DHT22;13899;51.174;4.456;2023-12-20T06:30:15;6.50;99.90
25918;DHT22;13899;51.174;4.456;2023-12-20T06:32:41;6.40;99.90
25918;DHT22;13899;51.174;4.456;2023-12-20T06:35:08;6.40;99.90
25918;DHT22;13899;51.174;4.456;2023-12-20T06:37:34;6.50;99.90
25918;DHT22;13899;51.174;4.456;2023-12-20T06:40:00;6.50;99.90
25918;DHT22;13899;51.174;4.456;2023-12-20T06:42:25;6.40;99.90
25918;DHT22;13899;51.174;4.456;2023-12-20T06:44:51;6.50;99.90
25918;DHT22;13899;51.174;4.456;2023-12-20T06:47:16;6.50;99.90
25918;DHT22;13899;51.174;4.456;2023-12-20T06:49:42;6.50;99.90
25918;DHT22;13899;51.174;4.456;2023-12-20T06:52:07;6.50;99.90
25918;DHT22;13899;51.174;4.456;2023-12-20T06:54:33;6.40;99.90
25918;DHT22;13899;51.174;4.456;2023-12-20T06:57:00;6.60;99.90
25918;DHT22;13899;51.174;4.456;2023-12-20T06:59:25;6.50;99.90
25918;DHT22;13899;51.174;4.456;2023-12-20T07:01:51;6.50;99.90
25918;DHT22;13899;51.174;4.456;2023-12-20T07:04:17;6.50;99.90
25918;DHT22;13899;51.174;4.456;2023-12-20T07:06:47;6.40;99.90
25918;DHT22;13899;51.174;4.456;2023-12-20T07:09:14;6.40;99.90
25918;DHT22;13899;51.174;4.456;2023-12-20T07:11:39;6.30;99.90
25918;DHT22;13899;51.174;4.456;2023-12-20T07:14:05;6.30;99.90
25918;DHT22;13899;51.174;4.456;2023-12-20T07:16:31;6.30;99.90
25918;DHT22;13899;51.174;4.456;2023-12-20T07:18:57;6.30;99.90
25918;DHT22;13899;51.174;4.456;2023-12-20T07:21:23;6.30;99.90
25918;DHT22;13899;51.174;4.456;2023-12-20T07:23:48;6.30;99.90
25918;DHT22;13899;51.174;4.456;2023-12-20T07:26:14;6.30;99.90
25918;DHT22;13899;51.174;4.456;2023-12-20T07:28:40;6.30;99.90
25918;DHT22;13899;51.174;4.456;2023-12-20T07:31:06;6.30;99.90
25918;DHT22;13899;51.174;4.456;2023-12-20T07:33:31;6.20;99.90
25918;DHT22;13899;51.174;4.456;2023-12-20T07:35:59;6.30;99.90
25918;DHT22;13899;51.174;4.456;2023-12-20T07:38:24;6.40;99.90
25918;DHT22;13899;51.174;4.456;2023-12-20T07:40:50;6.30;99.90
25918;DHT22;13899;51.174;4.456;2023-12-20T07:43:15;6.20;99.90
25918;DHT22;13899;51.174;4.456;2023-12-20T07:45:41;6.30;99.90
25918;DHT22;13899;51.174;4.456;2023-12-20T07:48:07;6.20;99.90
25918;DHT22;13899;51.174;4.456;2023-12-20T07:50:33;6.10;99.90
25918;DHT22;13899;51.174;4.456;2023-12-20T07:52:58;6.20;99.90
25918;DHT22;13899;51.174;4.456;2023-12-20T07:55:26;6.10;99.90
25918;DHT22;13899;51.174;4.456;2023-12-20T07:57:52;6.20;99.90
25918;DHT22;13899;51.174;4.456;2023-12-20T08:00:18;6.20;99.90
25918;DHT22;13899;51.174;4.456;2023-12-20T08:02:43;6.10;99.90
25918;DHT22;13899;51.174;4.456;2023-12-20T08:05:09;6.10;99.90
25918;DHT22;13899;51.174;4.456;2023-12-20T08:07:35;6.20;99.90
25918;DHT22;13899;51.174;4.456;2023-12-20T08:10:00;6.20;99.90
25918;DHT22;13899;51.174;4.456;2023-12-20T08:12:26;6.30;99.90
25918;DHT22;13899;51.174;4.456;2023-12-20T08:14:53;6.20;99.90
25918;DHT22;13899;51.174;4.456;2023-12-20T08:17:19;6.30;99.90
25918;DHT22;13899;51.174;4.456;2023-12-20T08:19:45;6.40;99.90
25918;DHT22;13899;51.174;4.456;2023-12-20T08:22:11;6.30;99.90
25918;DHT22;13899;51.174;4.456;2023-12-20T08:24:37;6.30;99.90
25918;DHT22;13899;51.174;4.456;2023-12-20T08:27:03;6.30;99.90
25918;DHT22;13899;51.174;4.456;2023-12-20T08:29:29;6.20;99.90
25918;DHT22;13899;51.174;4.456;2023-12-20T08:31:56;6.10;99.90
25918;DHT22;13899;51.174;4.456;2023-12-20T08:34:22;6.20;99.90
25918;DHT22;13899;51.174;4.456;2023-12-20T08:36:47;6.20;99.90
25918;DHT22;13899;51.174;4.456;2023-12-20T08:39:13;6.20;99.90
25918;DHT22;13899;51.174;4.456;2023-12-20T08:41:39;6.20;99.90
25918;DHT22;13899;51.174;4.456;2023-12-20T08:44:04;6.30;99.90
25918;DHT22;13899;51.174;4.456;2023-12-20T08:46:30;6.40;99.90
25918;DHT22;13899;51.174;4.456;2023-12-20T08:48:56;6.40;99.90
25918;DHT22;13899;51.174;4.456;2023-12-20T08:51:21;6.50;99.90
25918;DHT22;13899;51.174;4.456;2023-12-20T08:53:49;6.40;99.90
25918;DHT22;13899;51.174;4.456;2023-12-20T08:56:15;6.40;99.90
25918;DHT22;13899;51.174;4.456;2023-12-20T08:58:40;6.60;99.90
25918;DHT22;13899;51.174;4.456;2023-12-20T09:01:06;6.60;99.90
25918;DHT22;13899;51.174;4.456;2023-12-20T09:03:33;6.70;99.90
25918;DHT22;13899;51.174;4.456;2023-12-20T09:05:58;6.60;99.90
25918;DHT22;13899;51.174;4.456;2023-12-20T09:08:24;6.50;99.90
25918;DHT22;13899;51.174;4.456;2023-12-20T09:10:50;6.50;99.90
25918;DHT22;13899;51.174;4.456;2023-12-20T09:13:16;6.70;99.90
25918;DHT22;13899;51.174;4.456;2023-12-20T09:15:41;6.80;99.90
25918;DHT22;13899;51.174;4.456;2023-12-20T09:18:07;6.70;99.90
25918;DHT22;13899;51.174;4.456;2023-12-20T09:20:33;6.80;99.90
25918;DHT22;13899;51.174;4.456;2023-12-20T09:22:59;6.90;99.90
25918;DHT22;13899;51.174;4.456;2023-12-20T09:25:25;6.90;99.90
25918;DHT22;13899;51.174;4.456;2023-12-20T09:27:52;7.00;99.90
25918;DHT22;13899;51.174;4.456;2023-12-20T09:30:18;7.10;99.90
25918;DHT22;13899;51.174;4.456;2023-12-20T09:32:45;7.40;99.90
25918;DHT22;13899;51.174;4.456;2023-12-20T09:35:11;7.70;99.90
25918;DHT22;13899;51.174;4.456;2023-12-20T09:37:37;7.50;99.90
25918;DHT22;13899;51.174;4.456;2023-12-20T09:40:03;8.00;99.90
25918;DHT22;13899;51.174;4.456;2023-12-20T09:43:03;8.00;99.90
25918;DHT22;13899;51.174;4.456;2023-12-20T09:45:31;8.20;99.90
25918;DHT22;13899;51.174;4.456;2023-12-20T09:47:58;8.30;99.90
25918;DHT22;13899;51.174;4.456;2023-12-20T09:50:23;7.90;99.90
25918;DHT22;13899;51.174;4.456;2023-12-20T09:52:53;7.60;99.90
25918;DHT22;13899;51.174;4.456;2023-12-20T09:55:21;8.00;99.90
25918;DHT22;13899;51.174;4.456;2023-12-20T09:57:48;8.20;99.90
25918;DHT22;13899;51.174;4.456;2023-12-20T10:00:15;8.30;99.90
25918;DHT22;13899;51.174;4.456;2023-12-20T10:02:49;7.90;99.90
25918;DHT22;13899;51.174;4.456;2023-12-20T10:05:16;8.10;99.90
25918;DHT22;13899;51.174;4.456;2023-12-20T10:07:46;8.20;99.90
25918;DHT22;13899;51.174;4.456;2023-12-20T10:10:13;8.10;99.90
25918;DHT22;13899;51.174;4.456;2023-12-20T10:12:39;8.00;99.90
25918;DHT22;13899;51.174;4.456;2023-12-20T10:15:06;8.00;99.90
25918;DHT22;13899;51.174;4.456;2023-12-20T10:17:31;7.80;99.90
25918;DHT22;13899;51.174;4.456;2023-12-20T10:19:58;7.80;99.90
25918;DHT22;13899;51.174;4.456;2023-12-20T10:22:24;7.70;99.90
25918;DHT22;13899;51.174;4.456;2023-12-20T10:24:50;7.90;99.90
25918;DHT22;13899;51.174;4.456;2023-12-20T10:27:18;7.90;99.90
25918;DHT22;13899;51.174;4.456;2023-12-20T10:29:45;7.90;99.90
25918;DHT22;13899;51.174;4.456;2023-12-20T10:32:25;7.80;99.90
25918;DHT22;13899;51.174;4.456;2023-12-20T10:34:52;7.90;99.90
25918;DHT22;13899;51.174;4.456;2023-12-20T10:37:18;7.90;99.90
25918;DHT22;13899;51.174;4.456;2023-12-20T10:39:44;8.00;99.90
25918;DHT22;13899;51.174;4.456;2023-12-20T10:42:15;8.30;99.90
25918;DHT22;13899;51.174;4.456;2023-12-20T10:44:41;8.30;99.90
25918;DHT22;13899;51.174;4.456;2023-12-20T10:47:09;8.10;99.90
25918;DHT22;13899;51.174;4.456;2023-12-20T10:49:37;8.10;99.90
25918;DHT22;13899;51.174;4.456;2023-12-20T10:52:06;8.00;99.90
25918;DHT22;13899;51.174;4.456;2023-12-20T10:54:32;8.00;99.90
25918;DHT22;13899;51.174;4.456;2023-12-20T10:56:58;8.00;99.90
25918;DHT22;13899;51.174;4.456;2023-12-20T10:59:28;7.90;99.90
25918;DHT22;13899;51.174;4.456;2023-12-20T11:01:56;7.90;99.90
25918;DHT22;13899;51.174;4.456;2023-12-20T11:04:34;7.90;99.90
25918;DHT22;13899;51.174;4.456;2023-12-20T11:07:21;7.90;99.90
25918;DHT22;13899;51.174;4.456;2023-12-20T11:10:02;8.00;99.90
25918;DHT22;13899;51.174;4.456;2023-12-20T11:12:38;8.10;99.90
25918;DHT22;13899;51.174;4.456;2023-12-20T11:15:07;8.10;99.90
25918;DHT22;13899;51.174;4.456;2023-12-20T11:17:33;7.90;99.90
25918;DHT22;13899;51.174;4.456;2023-12-20T11:22:29;7.80;99.90
25918;DHT22;13899;51.174;4.456;2023-12-20T11:24:59;7.70;99.90
25918;DHT22;13899;51.174;4.456;2023-12-20T11:27:27;7.80;99.90
25918;DHT22;13899;51.174;4.456;2023-12-20T11:29:56;7.70;99.90
25918;DHT22;13899;51.174;4.456;2023-12-20T11:34:51;7.80;99.90
25918;DHT22;13899;51.174;4.456;2023-12-20T11:37:20;7.80;99.90
25918;DHT22;13899;51.174;4.456;2023-12-20T11:39:45;7.70;99.90
25918;DHT22;13899;51.174;4.456;2023-12-20T11:42:20;7.60;99.90
25918;DHT22;13899;51.174;4.456;2023-12-20T11:44:46;7.80;99.90
25918;DHT22;13899;51.174;4.456;2023-12-20T11:47:13;7.60;99.90
25918;DHT22;13899;51.174;4.456;2023-12-20T11:49:39;7.70;99.90
25918;DHT22;13899;51.174;4.456;2023-12-20T11:52:05;7.80;99.90
25918;DHT22;13899;51.174;4.456;2023-12-20T11:54:31;7.90;99.90
25918;DHT22;13899;51.174;4.456;2023-12-20T11:56:57;7.80;99.90
25918;DHT22;13899;51.174;4.456;2023-12-20T11:59:23;7.80;99.90
25918;DHT22;13899;51.174;4.456;2023-12-20T12:01:50;7.90;99.90
25918;DHT22;13899;51.174;4.456;2023-12-20T12:04:16;7.90;99.90
25918;DHT22;13899;51.174;4.456;2023-12-20T12:06:43;7.90;99.90
25918;DHT22;13899;51.174;4.456;2023-12-20T12:09:09;7.80;99.90
25918;DHT22;13899;51.174;4.456;2023-12-20T12:11:35;7.90;99.90
25918;DHT22;13899;51.174;4.456;2023-12-20T12:14:01;8.00;99.90
25918;DHT22;13899;51.174;4.456;2023-12-20T12:16:27;8.00;99.90
25918;DHT22;13899;51.174;4.456;2023-12-20T12:18:57;8.00;99.90
25918;DHT22;13899;51.174;4.456;2023-12-20T12:21:23;8.00;99.90
25918;DHT22;13899;51.174;4.456;2023-12-20T12:23:48;8.00;99.90
25918;DHT22;13899;51.174;4.456;2023-12-20T12:26:14;8.00;99.90
25918;DHT22;13899;51.174;4.456;2023-12-20T12:28:40;8.10;99.90
25918;DHT22;13899;51.174;4.456;2023-12-20T12:31:07;8.20;99.90
25918;DHT22;13899;51.174;4.456;2023-12-20T12:33:33;8.20;99.90
25918;DHT22;13899;51.174;4.456;2023-12-20T12:36:00;8.20;99.90
25918;DHT22;13899;51.174;4.456;2023-12-20T12:38:26;8.20;99.90
25918;DHT22;13899;51.174;4.456;2023-12-20T12:40:53;8.30;99.90
25918;DHT22;13899;51.174;4.456;2023-12-20T12:43:19;8.30;99.90
25918;DHT22;13899;51.174;4.456;2023-12-20T12:45:45;8.30;99.90
25918;DHT22;13899;51.174;4.456;2023-12-20T12:48:10;8.40;99.90
25918;DHT22;13899;51.174;4.456;2023-12-20T12:50:36;8.40;99.90
25918;DHT22;13899;51.174;4.456;2023-12-20T12:53:01;8.50;99.90
25918;DHT22;13899;51.174;4.456;2023-12-20T12:55:28;8.60;99.90
25918;DHT22;13899;51.174;4.456;2023-12-20T12:57:53;8.60;99.90
25918;DHT22;13899;51.174;4.456;2023-12-20T13:00:20;8.60;99.90
25918;DHT22;13899;51.174;4.456;2023-12-20T13:02:45;8.60;99.90
25918;DHT22;13899;51.174;4.456;2023-12-20T13:05:11;8.70;99.90
25918;DHT22;13899;51.174;4.456;2023-12-20T13:07:36;8.70;99.90
25918;DHT22;13899;51.174;4.456;2023-12-20T13:10:03;8.70;99.90
25918;DHT22;13899;51.174;4.456;2023-12-20T13:12:29;8.70;99.90
25918;DHT22;13899;51.174;4.456;2023-12-20T13:14:55;8.60;99.90
25918;DHT22;13899;51.174;4.456;2023-12-20T13:17:22;8.70;99.90
25918;DHT22;13899;51.174;4.456;2023-12-20T13:19:47;8.80;99.90
25918;DHT22;13899;51.174;4.456;2023-12-20T13:22:15;8.80;99.90
25918;DHT22;13899;51.174;4.456;2023-12-20T13:24:40;8.70;99.90
25918;DHT22;13899;51.174;4.456;2023-12-20T13:27:06;8.80;99.90
25918;DHT22;13899;51.174;4.456;2023-12-20T13:29:31;8.80;99.90
25918;DHT22;13899;51.174;4.456;2023-12-20T13:31:57;8.80;99.90
25918;DHT22;13899;51.174;4.456;2023-12-20T13:34:23;8.70;99.90
25918;DHT22;13899;51.174;4.456;2023-12-20T13:36:49;8.80;99.90
25918;DHT22;13899;51.174;4.456;2023-12-20T13:39:16;8.90;99.90
25918;DHT22;13899;51.174;4.456;2023-12-20T13:41:42;8.80;99.90
25918;DHT22;13899;51.174;4.456;2023-12-20T13:44:08;8.90;99.90
25918;DHT22;13899;51.174;4.456;2023-12-20T13:46:33;8.90;99.90
25918;DHT22;13899;51.174;4.456;2023-12-20T13:48:59;8.90;99.90
25918;DHT22;13899;51.174;4.456;2023-12-20T13:51:25;9.10;99.90
25918;DHT22;13899;51.174;4.456;2023-12-20T13:53:51;8.90;99.90
25918;DHT22;13899;51.174;4.456;2023-12-20T13:56:16;8.90;99.90
25918;DHT22;13899;51.174;4.456;2023-12-20T13:58:42;9.00;99.90
25918;DHT22;13899;51.174;4.456;2023-12-20T14:01:09;8.90;99.90
25918;DHT22;13899;51.174;4.456;2023-12-20T14:03:36;9.00;99.90
25918;DHT22;13899;51.174;4.456;2023-12-20T14:06:02;9.00;99.90
25918;DHT22;13899;51.174;4.456;2023-12-20T14:08:27;9.00;99.90
25918;DHT22;13899;51.174;4.456;2023-12-20T14:10:53;9.00;99.90
25918;DHT22;13899;51.174;4.456;2023-12-20T14:13:19;9.00;99.90
25918;DHT22;13899;51.174;4.456;2023-12-20T14:15:46;9.00;99.90
25918;DHT22;13899;51.174;4.456;2023-12-20T14:18:13;9.00;99.90
25918;DHT22;13899;51.174;4.456;2023-12-20T14:20:40;9.10;99.90
25918;DHT22;13899;51.174;4.456;2023-12-20T14:23:08;9.10;99.90
25918;DHT22;13899;51.174;4.456;2023-12-20T14:25:35;9.10;99.90
25918;DHT22;13899;51.174;4.456;2023-12-20T14:28:04;9.30;99.90
25918;DHT22;13899;51.174;4.456;2023-12-20T14:30:30;9.20;99.90
25918;DHT22;13899;51.174;4.456;2023-12-20T14:32:55;9.30;99.90
25918;DHT22;13899;51.174;4.456;2023-12-20T14:35:21;9.20;99.90
25918;DHT22;13899;51.174;4.456;2023-12-20T14:37:47;9.20;99.90
25918;DHT22;13899;51.174;4.456;2023-12-20T14:40:13;9.20;99.90
25918;DHT22;13899;51.174;4.456;2023-12-20T14:42:45;9.20;99.90
25918;DHT22;13899;51.174;4.456;2023-12-20T14:45:11;9.20;99.90
25918;DHT22;13899;51.174;4.456;2023-12-20T14:47:36;9.30;99.90
25918;DHT22;13899;51.174;4.456;2023-12-20T14:50:03;9.40;99.90
25918;DHT22;13899;51.174;4.456;2023-12-20T14:52:30;9.40;99.90
25918;DHT22;13899;51.174;4.456;2023-12-20T14:54:56;9.50;99.90
25918;DHT22;13899;51.174;4.456;2023-12-20T14:57:22;9.30;99.90
25918;DHT22;13899;51.174;4.456;2023-12-20T14:59:47;9.30;99.90
25918;DHT22;13899;51.174;4.456;2023-12-20T15:02:13;9.40;99.90
25918;DHT22;13899;51.174;4.456;2023-12-20T15:04:38;9.40;99.90
25918;DHT22;13899;51.174;4.456;2023-12-20T15:07:05;9.60;99.90
25918;DHT22;13899;51.174;4.456;2023-12-20T15:09:31;9.40;99.90
25918;DHT22;13899;51.174;4.456;2023-12-20T15:11:57;9.40;99.90
25918;DHT22;13899;51.174;4.456;2023-12-20T15:14:23;9.40;99.90
25918;DHT22;13899;51.174;4.456;2023-12-20T15:16:49;9.40;99.90
25918;DHT22;13899;51.174;4.456;2023-12-20T15:19:15;9.60;99.90
25918;DHT22;13899;51.174;4.456;2023-12-20T15:21:41;9.40;99.90
25918;DHT22;13899;51.174;4.456;2023-12-20T15:24:11;9.40;99.90
25918;DHT22;13899;51.174;4.456;2023-12-20T15:26:41;9.40;99.90
25918;DHT22;13899;51.174;4.456;2023-12-20T15:29:08;9.50;99.90
25918;DHT22;13899;51.174;4.456;2023-12-20T15:31:35;9.50;99.90
25918;DHT22;13899;51.174;4.456;2023-12-20T15:34:02;9.50;99.90
25918;DHT22;13899;51.174;4.456;2023-12-20T15:36:27;9.50;99.90
25918;DHT22;13899;51.174;4.456;2023-12-20T15:38:53;9.40;99.90
25918;DHT22;13899;51.174;4.456;2023-12-20T15:41:19;9.30;99.90
25918;DHT22;13899;51.174;4.456;2023-12-20T15:43:45;9.40;99.90